Airfield :
LOGIN :

Register | Disclaimer

   EN    FR    IT 

 










Legend :    VFR   Marginal VFR   IFR   Intensive IFR   Very Intensive IFR
Visi :
Ceiling :
>= 8 km
>= 3000ft
5 to 8 km
1000 to 3000 ft
1500m to 5 km
500 to 1000 ft
800 to 1500m
200 to 500 ft
< 800m
< 200 ft
Symbols :   Thunderstorms  Fog  Heavy snow  Heavy precipitations  Wind > 20 kt
SIGMETs :     Misc.  Thunderstorms  Icing  Turbulence  Mountain Waves  Volcanic Ashes







- Airport Elevation : 499 ft
- IATA code : TLS
- Download approach charts


LFBO - Toulouse / Blagnac

CURRENT METAR :
  • 151400Z AUTO 33003KT 310V020 9999 SCT021 SCT028 BKN033 17/12 Q1009 NOSIG

EXPIRED METARs :
  • 151330Z AUTO 30003KT 230V360 9999 BKN023 BKN120 17/12 Q1008 NOSIG
  • 151300Z AUTO 27003KT 210V320 9999 BKN020 16/12 Q1008 TEMPO BKN013
  • 151230Z AUTO 30005KT 9999 BKN017 BKN024 OVC030 16/12 Q1008 TEMPO BKN013
  • 151200Z AUTO 26003KT 200V300 9999 FEW011 BKN018 OVC025 16/12 Q1009 TEMPO BKN013
  • 151130Z AUTO VRB03KT 9999 BKN018 OVC024 16/12 Q1009 NOSIG

TAF TAF LFBO
Valid from the 15 at 12:00 until the 16 at 18:00 UTC


151100Z 1512/1618 28005KT 9999 BKN030
PROB30
TEMPO 1512/1514 BKN013
BECMG 1517/1519 12005KT
TEMPO 1519/1524 SCT030
BECMG 1522/1524 VRB02KT
TEMPO 1601/1606 3000 BR OVC003
PROB30
TEMPO 1603/1605 0800 BCFG VV///
BECMG 1606/1608 BKN012
BECMG 1610/1612 14010KT BKN025
BECMG 1614/1616 SCT030
ATIS : +33 5 62 74 66 36
No reported NOTAMs for that airfield.
1 SIGMET reported for the Bordeaux FIR (LFBB) :
 
Severe turbulence
LFBB SIGMET 8 VALID 151400/151800 LFPW
LFBB BORDEAUX FIR/UIR SEV TURB FCST WI N4600 E00300 - N4400 E00245 - N4545 E00200 - N4600 E00300 SFC/FL070 STNR NC=



MET'MAP, your aeronautical weather chart ! - Copyright ORBIFLY December 2007 - Disclaimer

ORBIFLY MET'MAP TEAM :

Programming & Development : Alexandra Zaïnal
Concept & Development : Baudouin d'Aumeries
Co-Development & Prog : Marc-Olivier Méhu
Technical & hardware support : Manuel Goepfert

Contact : metmap@orbifly.com




SOURCES & CREDITS :

   NOAA